createdAt,value
2023-01-03T00:00:10.669Z,12.6
2023-01-03T00:05:07.433Z,12.6
2023-01-03T00:11:17.879Z,12.59
2023-01-03T00:16:14.436Z,12.57
2023-01-03T00:18:50.835Z,12.54
2023-01-03T00:21:19.129Z,12.54
2023-01-03T00:25:01.492Z,12.54
2023-01-03T00:28:43.960Z,12.49
2023-01-03T00:31:12.260Z,11.93
2023-01-03T00:34:56.061Z,12.45
2023-01-03T00:39:34.728Z,12.39
2023-01-03T00:43:25.289Z,12.36
2023-01-03T00:47:07.682Z,12.34
2023-01-03T00:58:14.908Z,12.26
2023-01-03T01:08:07.983Z,12.23
2023-01-03T01:13:12.808Z,12.19
2023-01-03T01:18:17.435Z,12.13
2023-01-03T01:34:29.301Z,12.05
2023-01-03T01:38:11.758Z,12.01
2023-01-03T01:40:40.002Z,11.99
2023-01-03T01:44:22.419Z,11.92
2023-01-03T01:48:04.799Z,11.94
2023-01-03T01:51:47.219Z,11.93
2023-01-03T01:59:12.037Z,11.4
2023-01-03T02:04:08.533Z,11.93
2023-01-03T02:10:19.241Z,11.91
2023-01-03T02:14:09.788Z,11.9
2023-01-03T02:16:38.057Z,11.89
2023-01-03T02:19:06.371Z,11.87
2023-01-03T02:21:34.628Z,11.86
2023-01-03T02:24:02.853Z,11.87
2023-01-03T02:26:31.119Z,11.88
2023-01-03T02:30:13.567Z,11.88
2023-01-03T02:33:55.935Z,11.9
2023-01-03T02:36:24.203Z,11.88
2023-01-03T02:40:14.794Z,11.87
2023-01-03T02:45:11.336Z,11.88
2023-01-03T02:50:16.044Z,11.87
2023-01-03T02:53:58.469Z,11.87
2023-01-03T02:57:40.870Z,11.86
2023-01-03T03:01:23.324Z,11.89
2023-01-03T03:05:05.668Z,11.89
2023-01-03T03:08:48.066Z,11.88
2023-01-03T03:13:44.579Z,11.88
2023-01-03T03:16:12.925Z,11.87
2023-01-03T03:19:55.232Z,11.86
2023-01-03T03:23:37.634Z,11.86
2023-01-03T03:28:42.373Z,11.82
2023-01-03T03:32:24.764Z,11.78
2023-01-03T03:34:53.075Z,11.78
2023-01-03T03:37:21.322Z,11.79
2023-01-03T03:39:49.590Z,11.77
2023-01-03T03:43:32.010Z,11.76
2023-01-03T03:47:14.536Z,11.76
2023-01-03T03:49:42.636Z,11.76
2023-01-03T03:57:15.627Z,11.73
2023-01-03T04:02:12.282Z,11.17
2023-01-03T04:07:08.704Z,11.68
2023-01-03T04:13:11.184Z,11.6
2023-01-03T04:18:15.931Z,11.58
2023-01-03T04:33:13.688Z,11.48
2023-01-03T04:38:10.230Z,11.5
2023-01-03T04:44:29.188Z,11.52
2023-01-03T04:47:05.514Z,11.53
2023-01-03T04:49:33.830Z,11.53
2023-01-03T04:53:16.300Z,11.53
2023-01-03T04:57:06.926Z,11.51
2023-01-03T04:59:35.098Z,11.51
2023-01-03T05:03:19.163Z,11.51
2023-01-03T05:06:59.846Z,11.53
2023-01-03T05:09:28.156Z,11.53
2023-01-03T05:13:10.543Z,11.52
2023-01-03T05:16:53.022Z,11.54
2023-01-03T05:19:21.259Z,11.55
2023-01-03T05:23:03.695Z,11.56
2023-01-03T05:28:12.295Z,11.56
2023-01-03T05:34:18.993Z,11.53
2023-01-03T05:39:15.501Z,11.52
2023-01-03T05:44:20.303Z,11.52
2023-01-03T05:46:56.781Z,11.51
2023-01-03T05:49:25.037Z,11.51
2023-01-03T05:53:07.389Z,11.49
2023-01-03T05:56:49.764Z,11.51
2023-01-03T05:59:18.035Z,11.5
2023-01-03T06:03:00.468Z,11.5
2023-01-03T06:07:40.658Z,11.51
2023-01-03T06:10:17.025Z,11.5
2023-01-03T06:15:13.663Z,11.46
2023-01-03T06:20:10.142Z,11.5
2023-01-03T06:25:06.647Z,11.5
2023-01-03T06:37:36.194Z,11.53
2023-01-03T06:40:04.475Z,11.54
2023-01-03T06:42:32.824Z,11.54
2023-01-03T06:45:00.984Z,11.53
2023-01-03T06:47:29.249Z,11.53
2023-01-03T06:49:57.506Z,11.53
2023-01-03T06:53:39.957Z,11.53
2023-01-03T06:57:25.606Z,11.54
2023-01-03T06:59:50.564Z,11.53
2023-01-03T07:02:19.008Z,11.51
2023-01-03T07:12:11.897Z,10.81
2023-01-03T07:17:08.439Z,11.42
2023-01-03T07:23:27.282Z,11.42
2023-01-03T07:25:55.609Z,11.42
2023-01-03T07:28:23.819Z,11.41
2023-01-03T07:30:52.157Z,11.42
2023-01-03T07:33:20.344Z,11.41
2023-01-03T07:35:48.614Z,11.41
2023-01-03T07:38:16.849Z,11.37
2023-01-03T07:41:59.301Z,11.38
2023-01-03T07:45:41.639Z,11.38
2023-01-03T07:48:18.125Z,11.38
2023-01-03T07:53:14.639Z,11.41
2023-01-03T07:58:11.198Z,11.43
2023-01-03T08:03:11.066Z,11.41
2023-01-03T08:08:12.484Z,10.87
2023-01-03T08:11:54.861Z,11.42
2023-01-03T08:19:28.624Z,11.44
2023-01-03T08:24:25.224Z,11.45
2023-01-03T08:29:21.747Z,11.46
2023-01-03T08:33:45.492Z,11.47
2023-01-03T08:38:42.117Z,11.45
2023-01-03T08:43:38.616Z,11.46
2023-01-03T08:48:35.169Z,11.47
2023-01-03T08:53:31.768Z,11.48
2023-01-03T09:00:56.601Z,11.5
2023-01-03T09:03:24.924Z,11.51
2023-01-03T09:08:21.355Z,11.51
2023-01-03T09:13:17.920Z,11.52
2023-01-03T09:18:14.473Z,11.54
2023-01-03T09:23:11.066Z,11.59
2023-01-03T09:28:07.615Z,11.61
2023-01-03T09:30:35.869Z,11.64
2023-01-03T09:37:27.914Z,11.7
2023-01-03T09:39:56.190Z,11.71
2023-01-03T09:47:21.153Z,11.76
2023-01-03T09:57:14.159Z,11.75
2023-01-03T10:02:10.930Z,11.65
2023-01-03T10:09:35.547Z,11.75
2023-01-03T10:17:00.434Z,11.73
2023-01-03T10:26:53.513Z,11.82
2023-01-03T10:31:50.044Z,11.87
2023-01-03T10:40:04.779Z,11.93
2023-01-03T10:47:29.633Z,11.91
2023-01-03T10:49:57.894Z,11.92
2023-01-03T10:54:54.451Z,11.97
2023-01-03T10:59:51.156Z,11.98
2023-01-03T11:04:47.658Z,11.99
2023-01-03T11:09:48.812Z,12.04
2023-01-03T11:14:40.642Z,12.1
2023-01-03T11:19:37.170Z,12.18
2023-01-03T11:24:33.802Z,12.22
2023-01-03T11:29:30.430Z,12.28
2023-01-03T11:34:26.875Z,12.16
2023-01-03T11:39:26.924Z,12.42
2023-01-03T11:44:19.988Z,12.61
2023-01-03T11:46:48.320Z,12.74
2023-01-03T11:54:13.054Z,13.03
2023-01-03T12:05:45.322Z,13.39
2023-01-03T12:10:41.856Z,13.38
2023-01-03T12:18:06.699Z,13.33
2023-01-03T12:23:03.205Z,13.26
2023-01-03T12:25:31.487Z,13.22
2023-01-03T12:32:56.319Z,13.2
2023-01-03T12:35:24.615Z,13.2
2023-01-03T12:42:49.428Z,13.22
2023-01-03T12:45:17.722Z,13.22
2023-01-03T12:51:53.346Z,13.19
2023-01-03T13:01:46.601Z,13.17
2023-01-03T13:04:17.780Z,13.17
2023-01-03T13:11:39.586Z,13.14
2023-01-03T13:21:32.763Z,13.1
2023-01-03T13:24:00.953Z,13.1
2023-01-03T13:41:19.587Z,13.05
2023-01-03T13:46:15.508Z,13.06
2023-01-03T13:48:43.685Z,13.06
2023-01-03T13:56:08.608Z,13.08
2023-01-03T14:09:19.894Z,13.08
2023-01-03T14:19:12.964Z,13.13
2023-01-03T14:24:09.534Z,13.17
2023-01-03T14:31:34.426Z,13.19
2023-01-03T14:34:02.674Z,13.2
2023-01-03T14:38:59.209Z,13.2
2023-01-03T14:43:55.809Z,13.19
2023-01-03T14:48:53.168Z,13.2
2023-01-03T14:53:48.867Z,13.19
2023-01-03T14:58:45.406Z,13.19
2023-01-03T15:01:13.830Z,13.18
2023-01-03T15:06:10.249Z,13.19
2023-01-03T15:17:26.089Z,13.14
2023-01-03T15:19:54.419Z,13.12
2023-01-03T15:22:22.592Z,13.13
2023-01-03T15:24:50.981Z,13.13
2023-01-03T15:27:19.146Z,13.11
2023-01-03T15:29:47.432Z,13.05
2023-01-03T15:32:15.769Z,13.01
2023-01-03T15:37:12.299Z,13.05
2023-01-03T15:39:40.564Z,13.01
2023-01-03T15:42:43.312Z,13.03
2023-01-03T15:49:33.636Z,12.96
2023-01-03T15:52:01.920Z,12.92
2023-01-03T15:56:58.470Z,12.93
2023-01-03T15:59:26.744Z,12.75
2023-01-03T16:04:23.317Z,12.88
2023-01-03T16:09:19.850Z,12.84
2023-01-03T16:16:44.704Z,12.79
2023-01-03T16:19:12.975Z,12.73
2023-01-03T16:24:09.499Z,12.67
2023-01-03T16:29:06.237Z,12.63
2023-01-03T16:31:34.409Z,12.6
2023-01-03T16:36:30.886Z,12.48
2023-01-03T16:45:18.569Z,12.26
2023-01-03T16:47:46.709Z,12.29
2023-01-03T16:50:15.019Z,12.25
2023-01-03T16:55:11.555Z,12.21
2023-01-03T16:57:39.855Z,12.13
2023-01-03T17:00:08.110Z,12.03
2023-01-03T17:02:36.470Z,11.96
2023-01-03T17:05:04.647Z,11.97
2023-01-03T17:07:32.937Z,11.91
2023-01-03T17:10:01.224Z,11.91
2023-01-03T17:14:57.769Z,11.97
2023-01-03T17:17:26.046Z,11.82
2023-01-03T17:20:05.815Z,11.96
2023-01-03T17:24:50.919Z,12
2023-01-03T17:29:47.439Z,11.89
2023-01-03T17:34:44.011Z,11.8
2023-01-03T17:37:12.242Z,11.72
2023-01-03T17:45:59.880Z,11.58
2023-01-03T17:53:24.694Z,11.5
2023-01-03T17:55:53.012Z,11.4
2023-01-03T18:00:49.522Z,11.33
2023-01-03T18:05:46.033Z,11.48
2023-01-03T18:13:10.824Z,11.63
2023-01-03T18:15:39.148Z,11.65
2023-01-03T18:20:35.677Z,11.71
2023-01-03T18:25:32.232Z,11.75
2023-01-03T18:32:57.058Z,11.7
2023-01-03T18:35:29.859Z,11.65
2023-01-03T18:42:50.196Z,11.57
2023-01-03T18:45:18.464Z,11.6
2023-01-03T18:47:46.695Z,11.58
2023-01-03T18:52:43.275Z,11.62
2023-01-03T18:55:11.564Z,11.64
2023-01-03T18:57:39.854Z,11.67
2023-01-03T19:02:03.699Z,11.6
2023-01-03T19:04:31.890Z,11.6
2023-01-03T19:07:00.201Z,11.56
2023-01-03T19:11:56.710Z,11.56
2023-01-03T19:14:25.006Z,11.53
2023-01-03T19:16:53.234Z,11.5
2023-01-03T19:21:49.829Z,11.52
2023-01-03T19:26:46.332Z,11.57
2023-01-03T19:31:42.967Z,11.64
2023-01-03T19:36:39.467Z,11.67
2023-01-03T19:41:36.102Z,11.65
2023-01-03T19:46:32.595Z,11.65
2023-01-03T19:51:29.127Z,11.61
2023-01-03T19:56:25.662Z,11.56
2023-01-03T20:01:22.329Z,11.53
2023-01-03T20:06:18.789Z,11.5
2023-01-03T20:11:15.342Z,11.45
2023-01-03T20:13:43.591Z,11.43
2023-01-03T20:16:11.895Z,11.41
2023-01-03T20:20:35.660Z,11.41
2023-01-03T20:23:06.170Z,11.4
2023-01-03T20:25:32.210Z,11.34
2023-01-03T20:30:28.814Z,11.27
2023-01-03T20:32:57.015Z,11.25
2023-01-03T20:36:06.535Z,11.22
2023-01-03T20:40:21.851Z,11.22
2023-01-03T20:42:50.144Z,11.21
2023-01-03T20:45:18.438Z,11.2
2023-01-03T20:52:43.255Z,11.17
2023-01-03T21:02:36.530Z,11.11
2023-01-03T21:05:04.632Z,11.13
2023-01-03T21:12:33.741Z,11.05
2023-01-03T21:19:54.272Z,10.9
2023-01-03T21:29:47.395Z,10.8
2023-01-03T21:32:15.680Z,10.82
2023-01-03T21:39:40.476Z,10.84
2023-01-03T21:52:51.825Z,10.68
2023-01-03T22:00:16.657Z,10.68
2023-01-03T22:07:41.459Z,10.6
2023-01-03T22:17:34.543Z,10.61
2023-01-03T22:22:31.107Z,10.39
2023-01-03T22:29:55.993Z,10.39
2023-01-03T22:37:20.777Z,10.45
2023-01-03T22:47:13.888Z,10.44
2023-01-03T22:49:42.252Z,10.46
2023-01-03T22:54:38.689Z,10.42
2023-01-03T22:59:35.239Z,10.42
2023-01-03T23:07:00.068Z,10.39
2023-01-03T23:09:28.382Z,10.31
2023-01-03T23:16:53.210Z,10.31
2023-01-03T23:19:21.465Z,10.3
2023-01-03T23:29:14.581Z,10.26
2023-01-03T23:34:11.163Z,10.2
2023-01-03T23:39:07.708Z,10.14
2023-01-03T23:46:32.567Z,10.1
2023-01-03T23:49:00.752Z,10.07
2023-01-03T23:56:25.604Z,10.04
2023-01-03T23:58:53.872Z,10
